Time;durP1;ratioP1;P1;durP2;ratioP2;P2;SDS_P1;SDS_P2;PMS_P1;PMS_P2;Temp;Humidity;BMP_temperature;BMP_pressure;BME280_temperature;BME280_humidity;BME280_pressure;Samples;Min_cycle;Max_cycle;Signal;HPM_P1;HPM_P2
2021/11/27 00:00:44;;;;;;;12.90;12.60;;;19.80;62.60;;;;;;5014046;28;20561;-50
2021/11/27 00:03:12;;;;;;;12.90;12.50;;;19.70;62.60;;;;;;5013764;28;20450;-50
2021/11/27 00:05:39;;;;;;;12.90;12.60;;;19.60;62.80;;;;;;5014078;28;20462;-50
2021/11/27 00:08:07;;;;;;;13.30;12.80;;;19.60;63.20;;;;;;5030573;28;20481;-52
2021/11/27 00:10:35;;;;;;;13.10;12.80;;;19.60;63.30;;;;;;5033567;28;20465;-50
2021/11/27 00:13:03;;;;;;;12.87;12.57;;;19.50;63.50;;;;;;5033280;28;20452;-50
2021/11/27 00:15:31;;;;;;;12.77;12.47;;;19.50;63.60;;;;;;5033503;28;20783;-51
2021/11/27 00:17:59;;;;;;;12.10;11.80;;;19.40;63.50;;;;;;5017460;28;20446;-50
2021/11/27 00:20:29;;;;;;;13.07;12.67;;;19.40;64.00;;;;;;5013627;28;20466;-50
2021/11/27 00:22:56;;;;;;;13.10;12.80;;;19.30;64.00;;;;;;5013479;28;20460;-49
2021/11/27 00:25:23;;;;;;;12.90;12.60;;;19.30;64.10;;;;;;5013581;28;20838;-51
2021/11/27 00:27:50;;;;;;;13.30;12.80;;;19.20;64.10;;;;;;5027476;28;20477;-49
2021/11/27 00:30:20;;;;;;;13.43;13.03;;;19.30;64.30;;;;;;5032874;28;20959;-49
2021/11/27 00:32:49;;;;;;;12.63;12.33;;;19.20;64.40;;;;;;5032967;28;20451;-50
2021/11/27 00:35:18;;;;;;;12.90;12.60;;;19.10;64.50;;;;;;5033271;28;20938;-51
2021/11/27 00:37:46;;;;;;;12.60;12.30;;;19.10;64.70;;;;;;5019470;28;20943;-51
2021/11/27 00:40:14;;;;;;;12.87;12.57;;;19.00;65.00;;;;;;5013761;28;20819;-51
2021/11/27 00:42:41;;;;;;;12.60;12.30;;;19.00;65.20;;;;;;5032464;28;20452;-51
2021/11/27 00:45:12;;;;;;;12.70;12.30;;;19.00;65.30;;;;;;5032925;28;20453;-54
2021/11/27 00:47:40;;;;;;;12.70;12.30;;;19.00;65.60;;;;;;5020192;28;20601;-49
2021/11/27 00:50:10;;;;;;;12.47;12.17;;;18.90;65.60;;;;;;5012794;28;20461;-50
2021/11/27 00:52:37;;;;;;;12.80;12.50;;;18.90;65.80;;;;;;5036748;22;20854;-48
2021/11/27 00:55:05;;;;;;;13.20;12.80;;;18.90;65.90;;;;;;5012853;28;20441;-48
2021/11/27 00:57:32;;;;;;;13.50;13.10;;;18.90;66.10;;;;;;5023995;28;20441;-47
2021/11/27 00:59:59;;;;;;;12.77;12.37;;;18.80;66.20;;;;;;5032751;28;20449;-47
2021/11/27 01:02:26;;;;;;;12.60;12.30;;;18.80;66.50;;;;;;5032196;28;20465;-48
2021/11/27 01:04:53;;;;;;;13.33;12.93;;;18.80;66.60;;;;;;5032567;28;20441;-48
2021/11/27 01:07:22;;;;;;;13.10;12.70;;;18.80;66.80;;;;;;5022826;28;20474;-48
2021/11/27 01:09:48;;;;;;;13.07;12.70;;;18.80;66.70;;;;;;5012680;28;20454;-47
2021/11/27 01:12:16;;;;;;;13.10;12.80;;;18.70;66.70;;;;;;5012419;28;20462;-47
2021/11/27 01:14:43;;;;;;;13.60;13.20;;;18.70;66.80;;;;;;5012599;28;20461;-48
2021/11/27 01:17:11;;;;;;;13.27;12.93;;;18.80;66.90;;;;;;5020040;28;20890;-48
2021/11/27 01:19:39;;;;;;;13.00;12.70;;;18.80;67.00;;;;;;5032321;28;20841;-47
2021/11/27 01:22:11;;;;;;;12.90;12.60;;;18.70;67.00;;;;;;5031835;28;20465;-47
2021/11/27 01:24:40;;;;;;;13.53;13.13;;;18.60;67.20;;;;;;5031096;28;20444;-47
2021/11/27 01:27:07;;;;;;;13.03;12.73;;;18.60;67.20;;;;;;5012488;28;20840;-48
2021/11/27 01:29:34;;;;;;;13.70;13.30;;;18.60;67.00;;;;;;5012469;28;20456;-48
2021/11/27 01:32:01;;;;;;;13.33;12.93;;;18.60;67.30;;;;;;5012143;28;20466;-48
2021/11/27 01:34:27;;;;;;;13.20;12.90;;;18.60;67.40;;;;;;5012126;28;20441;-47
2021/11/27 01:36:54;;;;;;;12.53;12.23;;;18.50;67.50;;;;;;5030865;28;20460;-47
2021/11/27 01:39:21;;;;;;;13.13;12.83;;;18.50;67.50;;;;;;5032001;28;20443;-47
2021/11/27 01:41:49;;;;;;;13.17;12.77;;;18.60;67.80;;;;;;5031539;28;20461;-49
2021/11/27 01:44:16;;;;;;;13.10;12.80;;;18.50;68.00;;;;;;5020968;28;20860;-46
2021/11/27 01:46:43;;;;;;;12.80;12.50;;;18.40;68.10;;;;;;5012067;28;20446;-47
2021/11/27 01:49:11;;;;;;;13.43;13.03;;;18.50;68.40;;;;;;5011974;28;20486;-47
2021/11/27 01:51:39;;;;;;;12.90;12.60;;;18.40;68.80;;;;;;5011850;28;20997;-47
2021/11/27 01:54:08;;;;;;;12.73;12.43;;;18.50;69.00;;;;;;5020757;28;20437;-48
2021/11/27 01:56:39;;;;;;;12.87;12.57;;;18.40;69.00;;;;;;5031816;28;20870;-49
2021/11/27 01:59:07;;;;;;;13.40;13.00;;;18.40;69.30;;;;;;5031717;28;20434;-47
2021/11/27 02:01:35;;;;;;;13.17;12.87;;;18.40;69.10;;;;;;5031478;28;20469;-47
2021/11/27 02:04:03;;;;;;;13.10;12.70;;;18.40;69.20;;;;;;5022885;28;20446;-46
2021/11/27 02:06:30;;;;;;;12.93;12.63;;;18.40;69.30;;;;;;5011933;28;20460;-49
2021/11/27 02:08:59;;;;;;;12.60;12.30;;;18.30;69.50;;;;;;5011988;28;20857;-47
2021/11/27 02:11:28;;;;;;;12.90;12.50;;;18.40;69.80;;;;;;5011630;28;20871;-52
2021/11/27 02:13:56;;;;;;;12.90;12.60;;;18.30;69.80;;;;;;5018745;28;20445;-46
2021/11/27 02:16:24;;;;;;;13.30;12.90;;;18.30;70.90;;;;;;5031437;28;20452;-46
2021/11/27 02:18:52;;;;;;;12.87;12.47;;;18.30;71.30;;;;;;5031476;28;20445;-46
2021/11/27 02:21:22;;;;;;;12.80;12.50;;;18.30;71.50;;;;;;5031401;28;20472;-47
2021/11/27 02:23:51;;;;;;;13.03;12.63;;;18.20;72.00;;;;;;5024687;28;20446;-49
2021/11/27 02:26:21;;;;;;;13.00;12.70;;;18.20;72.20;;;;;;5011646;28;20456;-46
2021/11/27 02:28:51;;;;;;;13.10;12.80;;;18.30;72.40;;;;;;5011702;28;20513;-48
2021/11/27 02:31:18;;;;;;;12.83;12.53;;;18.20;72.50;;;;;;5011610;28;20835;-48
2021/11/27 02:33:45;;;;;;;12.93;12.60;;;18.20;72.60;;;;;;5016431;28;20441;-49
2021/11/27 02:36:12;;;;;;;12.67;12.37;;;18.20;72.80;;;;;;5031984;28;20449;-46
2021/11/27 02:38:40;;;;;;;13.00;12.70;;;18.10;73.10;;;;;;5035342;28;20437;-50
2021/11/27 02:41:07;;;;;;;12.50;12.20;;;18.10;73.30;;;;;;5035264;28;20475;-48
2021/11/27 02:43:34;;;;;;;12.40;12.10;;;18.10;73.50;;;;;;5031099;28;20442;-52
2021/11/27 02:46:02;;;;;;;13.50;13.10;;;18.00;73.50;;;;;;5015300;28;20450;-50
2021/11/27 02:48:29;;;;;;;12.90;12.60;;;18.00;74.80;;;;;;5015211;28;20485;-48
2021/11/27 02:50:56;;;;;;;13.00;12.70;;;18.00;74.90;;;;;;5015215;28;20477;-47
2021/11/27 02:53:23;;;;;;;12.80;12.50;;;18.00;75.80;;;;;;5016074;28;20457;-48
2021/11/27 02:55:51;;;;;;;12.60;12.30;;;17.90;76.10;;;;;;5015149;28;20453;-48
2021/11/27 02:58:18;;;;;;;13.53;13.13;;;17.90;76.80;;;;;;5016208;28;20450;-47
2021/11/27 03:00:47;;;;;;;12.93;12.63;;;17.90;77.20;;;;;;5014981;28;20543;-46
2021/11/27 03:03:14;;;;;;;13.27;12.87;;;17.90;77.80;;;;;;5015101;28;20493;-46
2021/11/27 03:05:41;;;;;;;12.80;12.50;;;17.90;77.60;;;;;;5034718;28;20452;-51
2021/11/27 03:08:08;;;;;;;13.37;13.07;;;17.90;78.00;;;;;;5034501;28;20480;-49
2021/11/27 03:10:35;;;;;;;12.90;12.60;;;17.90;78.20;;;;;;5034687;28;20479;-48
2021/11/27 03:13:03;;;;;;;13.10;12.70;;;17.80;77.70;;;;;;5034419;28;20453;-47
2021/11/27 03:15:31;;;;;;;13.57;13.17;;;17.80;78.20;;;;;;5015627;28;20820;-48
2021/11/27 03:17:57;;;;;;;12.80;12.50;;;17.80;77.90;;;;;;5014761;28;20446;-52
2021/11/27 03:20:24;;;;;;;12.63;12.33;;;17.80;78.90;;;;;;5014738;28;20456;-46
2021/11/27 03:22:51;;;;;;;12.93;12.60;;;17.80;78.70;;;;;;5014753;28;20931;-46
2021/11/27 03:25:18;;;;;;;12.90;12.60;;;17.90;78.60;;;;;;5030906;28;20455;-48
2021/11/27 03:27:45;;;;;;;12.80;12.50;;;17.90;78.60;;;;;;5034337;28;20448;-49
2021/11/27 03:30:18;;;;;;;13.23;12.90;;;17.80;79.40;;;;;;5034544;28;20437;-47
2021/11/27 03:32:45;;;;;;;12.90;12.60;;;17.80;79.10;;;;;;5034069;28;20834;-48
2021/11/27 03:35:12;;;;;;;13.10;12.80;;;17.80;79.80;;;;;;5018243;28;20958;-47
2021/11/27 03:37:40;;;;;;;13.07;12.67;;;17.80;79.60;;;;;;5014535;28;20541;-47
2021/11/27 03:40:10;;;;;;;13.43;13.03;;;17.70;80.50;;;;;;5014408;28;20442;-50
2021/11/27 03:42:37;;;;;;;13.17;12.80;;;17.70;80.10;;;;;;5014101;28;20537;-47
2021/11/27 03:45:08;;;;;;;13.07;12.77;;;17.70;80.80;;;;;;5028703;28;20453;-51
2021/11/27 03:47:36;;;;;;;12.87;12.47;;;17.70;82.10;;;;;;5033503;28;20533;-47
2021/11/27 03:50:04;;;;;;;12.53;12.23;;;17.60;81.70;;;;;;5034004;28;20487;-50
2021/11/27 03:52:30;;;;;;;12.30;12.00;;;17.60;82.20;;;;;;5033590;28;20516;-47
2021/11/27 03:54:57;;;;;;;13.20;12.80;;;17.60;83.30;;;;;;5020286;28;20489;-46
2021/11/27 03:57:24;;;;;;;12.80;12.50;;;17.60;83.60;;;;;;5014088;28;20545;-47
2021/11/27 03:59:51;;;;;;;12.60;12.30;;;17.60;84.00;;;;;;5013965;28;20932;-51
2021/11/27 04:02:18;;;;;;;11.73;11.43;;;17.60;84.40;;;;;;5013743;28;20462;-50
2021/11/27 04:04:46;;;;;;;11.87;11.57;;;17.60;85.10;;;;;;5025206;28;20476;-48
2021/11/27 04:07:13;;;;;;;11.70;11.40;;;17.40;85.80;;;;;;5033650;28;20441;-47
2021/11/27 04:09:40;;;;;;;11.93;11.63;;;17.40;87.30;;;;;;5033649;28;20495;-48
2021/11/27 04:12:07;;;;;;;11.80;11.50;;;17.40;87.60;;;;;;5033338;28;20667;-47
2021/11/27 04:14:34;;;;;;;11.67;11.27;;;17.40;88.70;;;;;;5023578;28;20454;-46
2021/11/27 04:17:01;;;;;;;11.33;11.03;;;17.40;88.80;;;;;;5013619;28;20460;-48
2021/11/27 04:19:28;;;;;;;11.67;11.37;;;17.50;89.70;;;;;;5013589;28;20448;-48
2021/11/27 04:21:56;;;;;;;11.87;11.47;;;17.40;90.00;;;;;;5013353;28;20979;-47
2021/11/27 04:24:23;;;;;;;11.20;10.90;;;17.30;90.50;;;;;;5021400;28;20445;-46
2021/11/27 04:26:50;;;;;;;12.37;12.07;;;17.30;90.40;;;;;;5033282;28;20441;-47
2021/11/27 04:29:17;;;;;;;11.73;11.43;;;17.40;90.40;;;;;;5033220;28;20487;-46
2021/11/27 04:31:44;;;;;;;11.50;11.20;;;17.50;90.80;;;;;;5032835;28;20548;-52
2021/11/27 04:34:11;;;;;;;11.93;11.63;;;17.40;90.70;;;;;;5026591;28;20508;-51
2021/11/27 04:36:38;;;;;;;12.73;12.43;;;17.40;91.10;;;;;;5013319;28;20516;-48
2021/11/27 04:39:06;;;;;;;12.70;12.10;;;17.40;91.20;;;;;;5013296;28;20440;-51
2021/11/27 04:41:33;;;;;;;12.33;12.03;;;17.40;91.40;;;;;;5012997;28;20466;-46
2021/11/27 04:44:00;;;;;;;12.10;11.80;;;17.20;92.20;;;;;;5017412;28;20459;-47
2021/11/27 04:46:27;;;;;;;12.60;12.30;;;17.40;92.50;;;;;;5032653;28;20541;-47
2021/11/27 04:48:54;;;;;;;11.80;11.50;;;17.40;92.20;;;;;;5033010;28;20481;-50
2021/11/27 04:51:21;;;;;;;12.10;11.80;;;17.40;92.30;;;;;;5032691;28;20481;-47
2021/11/27 04:53:48;;;;;;;12.60;12.30;;;17.50;92.50;;;;;;5029646;28;20456;-49
2021/11/27 04:56:16;;;;;;;12.17;11.87;;;17.50;92.50;;;;;;5012994;28;20446;-48
2021/11/27 04:58:43;;;;;;;12.77;12.47;;;17.50;92.40;;;;;;5012194;28;20454;-47
2021/11/27 05:01:10;;;;;;;12.70;12.40;;;17.40;92.60;;;;;;5012545;28;20462;-48
2021/11/27 05:03:36;;;;;;;12.47;12.17;;;17.40;93.00;;;;;;5013241;28;20452;-49
2021/11/27 05:06:03;;;;;;;13.03;12.73;;;17.40;93.30;;;;;;5032505;28;20441;-48
2021/11/27 05:08:30;;;;;;;12.53;12.23;;;17.40;93.20;;;;;;5032569;28;20463;-47
2021/11/27 05:10:57;;;;;;;13.00;12.70;;;17.50;93.10;;;;;;5032128;28;20465;-49
2021/11/27 05:13:25;;;;;;;13.20;12.80;;;17.40;93.20;;;;;;5032273;28;20456;-48
2021/11/27 05:15:52;;;;;;;12.17;11.87;;;17.50;93.30;;;;;;5012992;28;20438;-47
2021/11/27 05:18:19;;;;;;;12.53;12.23;;;17.50;93.40;;;;;;5012606;28;20525;-50
2021/11/27 05:20:46;;;;;;;12.90;12.60;;;17.50;93.20;;;;;;5012595;28;20466;-46
2021/11/27 05:23:12;;;;;;;12.70;12.40;;;17.50;93.40;;;;;;5012281;28;20446;-47
2021/11/27 05:25:39;;;;;;;12.53;12.23;;;17.50;93.50;;;;;;5029247;28;20457;-49
2021/11/27 05:28:06;;;;;;;13.90;13.50;;;17.50;93.70;;;;;;5032153;28;20448;-48
2021/11/27 05:30:34;;;;;;;12.90;12.60;;;17.50;94.10;;;;;;5031834;28;20861;-51
2021/11/27 05:33:10;;;;;;;12.83;12.53;;;17.40;94.10;;;;;;5031879;28;20480;-46
2021/11/27 05:35:37;;;;;;;12.97;12.67;;;17.40;94.60;;;;;;5015497;28;20637;-46
2021/11/27 05:38:04;;;;;;;13.90;13.50;;;17.50;94.50;;;;;;5012305;28;20825;-46
2021/11/27 05:40:32;;;;;;;13.70;13.03;;;17.50;94.70;;;;;;5012232;28;20784;-48
2021/11/27 05:43:00;;;;;;;13.53;13.13;;;17.50;94.70;;;;;;5012000;28;20456;-47
2021/11/27 05:45:29;;;;;;;12.50;12.20;;;17.50;94.80;;;;;;5025993;28;20444;-49
2021/11/27 05:47:58;;;;;;;12.70;12.40;;;17.40;95.10;;;;;;5031564;28;20884;-48
2021/11/27 05:50:26;;;;;;;12.50;12.20;;;17.40;95.10;;;;;;5031810;28;20849;-47
2021/11/27 05:52:53;;;;;;;13.40;13.03;;;18.10;95.30;;;;;;5031499;28;20437;-47
2021/11/27 05:55:21;;;;;;;13.97;13.57;;;19.20;91.10;;;;;;5017806;28;20887;-50
2021/11/27 05:57:49;;;;;;;12.67;12.37;;;19.90;84.80;;;;;;5011881;28;20445;-52
2021/11/27 06:00:16;;;;;;;12.90;12.60;;;20.30;79.70;;;;;;5012065;28;20802;-47
2021/11/27 06:02:43;;;;;;;13.60;13.20;;;20.50;76.20;;;;;;5011589;28;20540;-49
2021/11/27 06:05:12;;;;;;;13.80;13.40;;;20.60;74.30;;;;;;5023409;28;20536;-47
2021/11/27 06:07:39;;;;;;;13.67;13.27;;;20.80;72.10;;;;;;5031575;28;20449;-46
2021/11/27 06:10:07;;;;;;;13.30;12.90;;;20.80;70.80;;;;;;5031422;28;20484;-46
2021/11/27 06:12:34;;;;;;;13.33;13.00;;;20.80;70.00;;;;;;5031497;28;20772;-47
2021/11/27 06:15:01;;;;;;;13.20;12.90;;;20.80;69.20;;;;;;5020554;28;20955;-47
2021/11/27 06:17:28;;;;;;;13.20;12.80;;;20.90;68.30;;;;;;5011766;28;20446;-48
2021/11/27 06:19:55;;;;;;;13.37;13.03;;;20.80;67.40;;;;;;5011855;28;20819;-47
2021/11/27 06:22:23;;;;;;;13.70;13.10;;;20.80;66.90;;;;;;5011425;28;20497;-51
2021/11/27 06:24:51;;;;;;;13.83;13.43;;;20.80;66.90;;;;;;5020479;28;20540;-50
2021/11/27 06:27:17;;;;;;;13.43;13.10;;;20.70;66.70;;;;;;5031426;28;20445;-50
2021/11/27 06:29:44;;;;;;;14.10;13.70;;;20.70;66.30;;;;;;5031230;28;20481;-49
2021/11/27 06:32:12;;;;;;;13.80;13.40;;;20.70;65.90;;;;;;5031135;28;20473;-47
2021/11/27 06:34:40;;;;;;;13.60;13.20;;;20.70;65.50;;;;;;5023931;28;20752;-51
2021/11/27 06:37:07;;;;;;;13.63;13.23;;;20.70;65.30;;;;;;5011577;28;20446;-51
2021/11/27 06:39:37;;;;;;;14.10;13.60;;;20.70;65.30;;;;;;5011711;28;20806;-48
2021/11/27 06:42:04;;;;;;;13.23;12.87;;;20.70;65.10;;;;;;5004695;28;20484;-51
2021/11/27 06:44:31;;;;;;;13.27;12.87;;;20.70;65.10;;;;;;5005418;28;20962;-50
2021/11/27 06:46:58;;;;;;;13.70;13.30;;;20.70;65.20;;;;;;5019111;28;20834;-52
2021/11/27 06:49:26;;;;;;;13.30;13.00;;;20.60;66.00;;;;;;5018929;28;20484;-51
2021/11/27 06:51:53;;;;;;;13.70;13.30;;;20.70;66.70;;;;;;5028355;28;20516;-54
2021/11/27 06:54:21;;;;;;;13.90;13.50;;;20.60;66.90;;;;;;5031677;28;20446;-54
2021/11/27 06:56:49;;;;;;;14.50;14.00;;;20.60;67.00;;;;;;5009498;28;20442;-48
2021/11/27 06:59:16;;;;;;;14.53;14.13;;;20.60;67.00;;;;;;5005375;28;20556;-51
2021/11/27 07:01:43;;;;;;;14.80;14.40;;;20.60;66.70;;;;;;5005038;28;20512;-50
2021/11/27 07:04:12;;;;;;;10.30;10.10;;;20.60;66.80;;;;;;5002796;28;20458;-54
2021/11/27 07:06:39;;;;;;;10.10;9.90;;;20.60;67.00;;;;;;5023446;28;20946;-52
2021/11/27 07:09:06;;;;;;;9.93;9.73;;;20.50;67.10;;;;;;5026431;28;20967;-51
2021/11/27 07:11:33;;;;;;;10.77;10.50;;;20.40;67.80;;;;;;5027705;28;20539;-56
2021/11/27 07:14:01;;;;;;;10.20;10.00;;;20.40;68.20;;;;;;5028192;28;20448;-53
2021/11/27 07:16:29;;;;;;;10.10;9.90;;;20.30;68.40;;;;;;5013110;28;20480;-52
2021/11/27 07:18:56;;;;;;;10.97;10.77;;;20.20;68.90;;;;;;5004526;28;21025;-55
2021/11/27 07:21:24;;;;;;;10.80;10.60;;;20.10;69.60;;;;;;5006937;28;20462;-52
2021/11/27 07:23:51;;;;;;;10.10;9.90;;;20.00;70.10;;;;;;5014196;28;20442;-52
2021/11/27 07:26:18;;;;;;;10.23;10.03;;;20.00;70.40;;;;;;5030323;28;20812;-52
2021/11/27 07:28:46;;;;;;;11.30;11.00;;;20.00;70.60;;;;;;5030249;28;20976;-52
2021/11/27 07:31:14;;;;;;;10.80;10.60;;;19.90;70.90;;;;;;5028248;28;20491;-53
2021/11/27 07:33:42;;;;;;;10.00;9.70;;;19.80;71.40;;;;;;5030535;28;20456;-52
2021/11/27 07:36:10;;;;;;;12.10;11.60;;;19.80;72.00;;;;;;5021350;28;20500;-51
2021/11/27 07:38:37;;;;;;;10.60;10.40;;;19.70;72.20;;;;;;5021078;28;20501;-49
2021/11/27 07:41:05;;;;;;;10.60;10.40;;;19.70;72.50;;;;;;5021881;28;20839;-50
2021/11/27 07:43:33;;;;;;;11.40;11.10;;;19.70;72.70;;;;;;5018320;28;20458;-50
2021/11/27 07:46:01;;;;;;;10.70;10.50;;;19.70;73.30;;;;;;5035453;28;20457;-50
2021/11/27 07:48:32;;;;;;;9.77;9.57;;;19.60;73.30;;;;;;5042409;28;20470;-50
2021/11/27 07:50:59;;;;;;;10.47;10.27;;;19.60;73.60;;;;;;5038664;28;20489;-48
2021/11/27 07:53:26;;;;;;;10.00;9.80;;;19.50;73.90;;;;;;5040672;28;20463;-48
2021/11/27 07:55:54;;;;;;;9.90;9.60;;;19.50;74.30;;;;;;5022371;28;20450;-51
2021/11/27 07:58:21;;;;;;;10.03;9.83;;;19.50;74.70;;;;;;5016146;28;20560;-55
2021/11/27 08:00:48;;;;;;;10.53;10.33;;;19.50;75.00;;;;;;5015533;28;20466;-51
2021/11/27 08:03:16;;;;;;;10.73;10.43;;;19.50;75.80;;;;;;5011904;28;20453;-56
2021/11/27 08:05:44;;;;;;;10.10;9.90;;;19.50;76.30;;;;;;5021859;28;20901;-50
2021/11/27 08:08:11;;;;;;;8.70;8.50;;;19.40;76.50;;;;;;5031666;28;21010;-49
2021/11/27 08:10:38;;;;;;;11.27;10.97;;;19.50;77.30;;;;;;5034266;28;20218;-54
2021/11/27 08:13:04;;;;;;;10.10;9.90;;;19.40;76.20;;;;;;5031936;28;21305;-51
2021/11/27 08:15:31;;;;;;;10.53;10.27;;;19.30;76.20;;;;;;5024690;28;20505;-49
2021/11/27 08:17:58;;;;;;;9.97;9.77;;;19.30;79.50;;;;;;5015566;28;20469;-54
2021/11/27 08:20:25;;;;;;;10.17;9.90;;;19.30;81.20;;;;;;5019073;28;20533;-54
2021/11/27 08:22:54;;;;;;;10.20;10.00;;;19.30;83.10;;;;;;5017412;28;20548;-52
2021/11/27 08:25:22;;;;;;;9.87;9.67;;;19.20;83.80;;;;;;5022513;28;20481;-50
2021/11/27 08:27:49;;;;;;;9.83;9.60;;;19.30;85.10;;;;;;5029129;28;20456;-52
2021/11/27 08:30:17;;;;;;;10.60;10.30;;;20.10;85.90;;;;;;5032759;28;20584;-52
2021/11/27 08:32:48;;;;;;;10.33;10.00;;;21.20;80.00;;;;;;5035696;28;20553;-51
2021/11/27 08:35:16;;;;;;;10.63;10.33;;;21.80;76.40;;;;;;5026572;28;20464;-51
2021/11/27 08:37:44;;;;;;;9.83;9.63;;;22.20;73.10;;;;;;5013584;28;20513;-51
2021/11/27 08:40:14;;;;;;;10.73;10.43;;;22.90;70.90;;;;;;5007242;28;20878;-51
2021/11/27 08:42:43;;;;;;;11.23;10.93;;;23.60;66.50;;;;;;5005709;28;21333;-51
2021/11/27 08:45:11;;;;;;;10.23;9.83;;;23.90;63.60;;;;;;5014070;28;20614;-53
2021/11/27 08:47:38;;;;;;;9.97;9.77;;;24.10;61.60;;;;;;5027057;28;20464;-54
2021/11/27 08:50:07;;;;;;;10.33;10.13;;;24.20;60.30;;;;;;5029286;28;20489;-57
2021/11/27 08:52:34;;;;;;;9.90;9.70;;;24.20;59.50;;;;;;5029671;28;20476;-54
2021/11/27 08:55:02;;;;;;;10.90;10.60;;;24.10;59.30;;;;;;5029021;28;20498;-55
2021/11/27 08:57:30;;;;;;;10.53;10.23;;;24.20;59.10;;;;;;5014454;28;20493;-53
2021/11/27 08:59:58;;;;;;;10.97;10.67;;;24.20;58.70;;;;;;5016687;28;20520;-56
2021/11/27 09:02:25;;;;;;;10.83;10.60;;;24.20;58.40;;;;;;5016209;28;20565;-54
2021/11/27 09:04:52;;;;;;;10.10;9.90;;;24.30;58.30;;;;;;5019729;28;20449;-56
2021/11/27 09:07:19;;;;;;;11.77;11.47;;;24.70;57.60;;;;;;5025617;28;20454;-51
2021/11/27 09:09:46;;;;;;;11.60;11.30;;;25.10;56.50;;;;;;5017057;28;20478;-53
2021/11/27 09:12:19;;;;;;;10.63;10.37;;;25.20;55.60;;;;;;5016359;28;20494;-52
2021/11/27 09:14:48;;;;;;;10.43;10.13;;;25.20;55.10;;;;;;5015713;28;20500;-54
2021/11/27 09:17:16;;;;;;;10.50;10.30;;;25.20;55.00;;;;;;5016679;28;20926;-54
2021/11/27 09:19:44;;;;;;;9.30;9.10;;;25.10;54.90;;;;;;5014100;28;21039;-57
2021/11/27 09:22:11;;;;;;;10.77;10.47;;;25.00;54.80;;;;;;5013926;28;20527;-55
2021/11/27 09:24:38;;;;;;;11.07;10.77;;;25.00;54.80;;;;;;5012939;28;20876;-55
2021/11/27 09:27:05;;;;;;;10.87;10.57;;;25.00;54.80;;;;;;5021623;28;20483;-54
2021/11/27 09:29:35;;;;;;;11.40;11.10;;;25.30;54.60;;;;;;5034376;28;20850;-52
2021/11/27 09:32:04;;;;;;;11.40;11.10;;;25.70;53.70;;;;;;5034883;28;20564;-53
2021/11/27 09:34:32;;;;;;;11.10;10.80;;;25.80;52.90;;;;;;5033300;28;20461;-55
2021/11/27 09:37:00;;;;;;;10.50;10.30;;;25.70;52.70;;;;;;5026503;28;20512;-51
2021/11/27 09:39:29;;;;;;;10.60;10.30;;;25.70;52.50;;;;;;5010254;28;20617;-53
2021/11/27 09:41:58;;;;;;;11.50;11.20;;;25.50;52.40;;;;;;5009994;28;20518;-51
2021/11/27 09:44:25;;;;;;;10.00;9.70;;;25.60;52.50;;;;;;5008211;28;20914;-58
2021/11/27 09:46:52;;;;;;;11.00;10.70;;;25.60;52.50;;;;;;5014019;28;20208;-53
2021/11/27 09:49:22;;;;;;;11.60;11.30;;;25.60;52.30;;;;;;5031862;28;20576;-57
2021/11/27 09:51:52;;;;;;;10.63;10.33;;;25.50;52.20;;;;;;5031155;28;20560;-55
2021/11/27 09:54:19;;;;;;;11.17;10.80;;;25.50;52.40;;;;;;5030056;28;20453;-50
2021/11/27 09:56:47;;;;;;;10.70;10.40;;;25.90;52.10;;;;;;5027050;28;21430;-56
2021/11/27 09:59:15;;;;;;;10.13;9.93;;;26.30;51.30;;;;;;5008848;28;20442;-50
2021/11/27 10:01:45;;;;;;;9.63;9.43;;;26.40;50.50;;;;;;5002118;28;20552;-50
2021/11/27 10:04:13;;;;;;;10.20;9.90;;;26.30;50.20;;;;;;5003429;28;20573;-49
2021/11/27 10:06:43;;;;;;;10.47;10.17;;;26.30;50.00;;;;;;5014677;28;20445;-55
2021/11/27 10:09:13;;;;;;;11.63;11.33;;;26.10;50.20;;;;;;5021992;28;20449;-48
2021/11/27 10:11:41;;;;;;;11.80;11.50;;;26.00;50.20;;;;;;5025257;28;20905;-52
2021/11/27 10:14:08;;;;;;;12.63;12.20;;;25.90;50.30;;;;;;5025505;28;20452;-53
2021/11/27 10:17:04;;;;;;;12.07;11.30;;;25.80;50.60;;;;;;5007906;28;20457;-58
2021/11/27 10:19:47;;;;;;;11.47;11.17;;;26.10;50.80;;;;;;5005037;28;20450;-50
2021/11/27 10:22:19;;;;;;;12.07;11.77;;;26.50;50.10;;;;;;5006375;28;20462;-49
2021/11/27 10:24:48;;;;;;;12.40;12.10;;;26.70;49.50;;;;;;5020060;28;20908;-53
2021/11/27 10:27:25;;;;;;;12.03;11.63;;;26.60;49.30;;;;;;5037270;28;20530;-55
2021/11/27 10:30:01;;;;;;;11.63;11.33;;;26.50;49.20;;;;;;5036980;28;20854;-58
2021/11/27 10:32:38;;;;;;;12.30;11.93;;;26.50;49.20;;;;;;5029423;28;20486;-54
2021/11/27 10:35:08;;;;;;;12.93;12.53;;;26.40;49.20;;;;;;5006429;28;20496;-51
2021/11/27 10:37:41;;;;;;;13.30;12.90;;;26.30;49.20;;;;;;5004853;28;20547;-53
2021/11/27 10:40:10;;;;;;;11.53;11.23;;;26.20;49.10;;;;;;5005031;28;20446;-53
2021/11/27 10:42:41;;;;;;;13.00;12.60;;;26.30;49.40;;;;;;5010823;28;20494;-54
2021/11/27 10:45:15;;;;;;;12.90;12.60;;;26.80;48.90;;;;;;5026170;28;20452;-51
2021/11/27 10:47:44;;;;;;;11.90;11.60;;;26.90;48.30;;;;;;5034487;28;20477;-51
2021/11/27 10:50:18;;;;;;;12.60;12.30;;;26.80;47.90;;;;;;5027185;28;20774;-52
2021/11/27 10:52:45;;;;;;;12.43;12.03;;;26.80;48.00;;;;;;5029413;28;20890;-50
2021/11/27 10:55:18;;;;;;;12.60;12.27;;;26.80;47.80;;;;;;5004922;28;20446;-53
2021/11/27 10:57:47;;;;;;;13.73;13.33;;;26.70;48.00;;;;;;5006857;28;20972;-47
2021/11/27 11:00:34;;;;;;;13.93;13.53;;;26.70;48.30;;;;;;5012387;28;20743;-54
2021/11/27 11:03:04;;;;;;;13.03;12.57;;;26.60;48.30;;;;;;5030160;28;20488;-55
2021/11/27 11:05:33;;;;;;;13.47;13.07;;;26.60;48.40;;;;;;5034536;28;20484;-48
2021/11/27 11:08:01;;;;;;;12.70;12.40;;;26.70;48.60;;;;;;5031014;28;20468;-52
2021/11/27 11:10:31;;;;;;;12.70;12.30;;;27.10;48.30;;;;;;5034141;28;20449;-57
2021/11/27 11:12:59;;;;;;;10.80;10.50;;;27.40;47.70;;;;;;5016862;28;20458;-54
2021/11/27 11:15:28;;;;;;;13.40;13.00;;;28.20;46.80;;;;;;5013280;28;20207;-53
2021/11/27 11:18:11;;;;;;;13.40;13.00;;;28.90;45.10;;;;;;5015167;28;20925;-46
2021/11/27 11:20:39;;;;;;;12.27;11.93;;;29.30;44.00;;;;;;5012280;28;20512;-52
2021/11/27 11:23:11;;;;;;;10.63;10.32;;;28.90;44.00;;;;;;5020864;28;20485;-52
2021/11/27 11:25:51;;;;;;;14.10;13.70;;;28.50;44.60;;;;;;5032796;28;20294;-52
2021/11/27 11:28:18;;;;;;;13.63;13.23;;;28.90;44.00;;;;;;5032580;28;20444;-54
2021/11/27 11:30:47;;;;;;;13.90;13.37;;;29.20;43.60;;;;;;5034703;28;20584;-54
2021/11/27 11:33:17;;;;;;;12.30;12.00;;;29.60;43.10;;;;;;5013752;28;20974;-50
2021/11/27 11:35:46;;;;;;;13.07;12.67;;;30.00;42.30;;;;;;5008716;28;20995;-52
2021/11/27 11:38:15;;;;;;;13.13;12.73;;;29.90;41.70;;;;;;5008670;28;20616;-58
2021/11/27 11:40:43;;;;;;;13.27;12.80;;;29.90;39.90;;;;;;5009819;28;20445;-54
2021/11/27 11:43:10;;;;;;;12.30;12.00;;;30.00;40.70;;;;;;5021881;28;20449;-55
2021/11/27 11:45:37;;;;;;;13.53;13.03;;;29.90;40.70;;;;;;5027847;28;20469;-55
2021/11/27 11:48:05;;;;;;;12.88;12.45;;;30.00;40.60;;;;;;5029590;28;20455;-55
2021/11/27 11:50:38;;;;;;;13.27;12.80;;;29.80;40.60;;;;;;5031098;28;20727;-53
2021/11/27 11:53:10;;;;;;;13.73;13.33;;;29.80;40.80;;;;;;5019274;28;20450;-49
2021/11/27 11:55:50;;;;;;;13.83;13.43;;;30.00;40.90;;;;;;5013853;28;20496;-51
2021/11/27 11:58:25;;;;;;;13.97;13.57;;;30.30;40.70;;;;;;5016039;28;20540;-51
2021/11/27 12:00:59;;;;;;;12.80;12.40;;;30.40;40.30;;;;;;5004294;28;20466;-52
2021/11/27 12:03:27;;;;;;;13.20;12.67;;;30.50;40.10;;;;;;4989274;28;20573;-53
2021/11/27 12:06:12;;;;;;;13.43;12.93;;;30.30;39.80;;;;;;4989254;28;20453;-48
2021/11/27 12:09:14;;;;;;;13.80;13.30;;;29.70;40.00;;;;;;4988522;28;20450;-46
2021/11/27 12:11:58;;;;;;;12.13;11.83;;;29.60;40.90;;;;;;4998786;28;20554;-52
2021/11/27 12:14:58;;;;;;;13.50;13.10;;;29.70;40.80;;;;;;5024433;28;20448;-54
2021/11/27 12:17:25;;;;;;;14.03;13.63;;;29.20;40.70;;;;;;5028649;28;20457;-51
2021/11/27 12:19:54;;;;;;;13.30;12.80;;;29.00;41.10;;;;;;5025838;28;20816;-55
2021/11/27 12:22:49;;;;;;;12.60;12.30;;;28.80;41.80;;;;;;5012108;28;20506;-56
2021/11/27 12:25:27;;;;;;;13.77;13.37;;;28.30;42.20;;;;;;5005056;28;20461;-58
2021/11/27 12:28:21;;;;;;;12.30;12.00;;;28.20;42.50;;;;;;5004346;28;20775;-58
2021/11/27 12:31:06;;;;;;;12.30;11.90;;;28.10;43.00;;;;;;5004300;28;20995;-58
2021/11/27 12:33:54;;;;;;;12.50;12.20;;;27.90;43.20;;;;;;4982697;28;20451;-52
2021/11/27 12:36:41;;;;;;;12.37;12.00;;;27.90;43.30;;;;;;4983366;28;20459;-55